Time;durP1;ratioP1;P1;durP2;ratioP2;P2;SDS_P1;SDS_P2;PMS_P1;PMS_P2;Temp;Humidity;BMP_temperature;BMP_pressure;BME280_temperature;BME280_humidity;BME280_pressure;Samples;Min_cycle;Max_cycle;Signal;HPM_P1;HPM_P2
2022/08/29 00:01:59;;;;;;;38.08;20.90;;;;;;;;;;5031725;28;20029;-78
2022/08/29 00:04:25;;;;;;;38.92;20.35;;;;;;;;;;5031921;28;20113;-78
2022/08/29 00:06:50;;;;;;;38.40;21.38;;;;;;;;;;5032777;28;20029;-78
2022/08/29 00:09:15;;;;;;;32.45;19.77;;;;;;;;;;5031186;28;20033;-76
2022/08/29 00:11:41;;;;;;;32.97;19.92;;;;;;;;;;5032923;28;20041;-78
2022/08/29 00:14:06;;;;;;;39.42;22.40;;;;;;;;;;5032015;28;20084;-81
2022/08/29 00:16:34;;;;;;;34.85;21.70;;;;;;;;;;5048146;28;20025;-78
2022/08/29 00:19:00;;;;;;;31.13;19.92;;;;;;;;;;5048003;28;20033;-78
2022/08/29 00:21:25;;;;;;;35.53;20.23;;;;;;;;;;5032715;28;20025;-78
2022/08/29 00:23:51;;;;;;;33.97;21.15;;;;;;;;;;5042305;28;20022;-79
2022/08/29 00:26:18;;;;;;;30.45;18.98;;;;;;;;;;5028422;28;20022;-78
2022/08/29 00:28:43;;;;;;;37.45;20.58;;;;;;;;;;5027352;28;20509;-78
2022/08/29 00:31:09;;;;;;;31.15;20.25;;;;;;;;;;5011768;28;20098;-77
2022/08/29 00:33:35;;;;;;;35.35;20.33;;;;;;;;;;5013164;28;20064;-78
2022/08/29 00:36:01;;;;;;;29.98;19.90;;;;;;;;;;5011209;28;20033;-78
2022/08/29 00:38:27;;;;;;;33.15;19.50;;;;;;;;;;5012452;28;20022;-78
2022/08/29 00:40:55;;;;;;;36.22;19.80;;;;;;;;;;5012946;28;20033;-78
2022/08/29 00:43:27;;;;;;;32.08;20.23;;;;;;;;;;5012014;28;20033;-78
2022/08/29 00:46:19;;;;;;;36.60;20.08;;;;;;;;;;5027914;28;20109;-79
2022/08/29 00:48:47;;;;;;;;;;;;;;;;;;5012767;28;20033;-79
2022/08/29 00:51:18;;;;;;;34.00;19.35;;;;;;;;;;5011334;28;20003;-78
2022/08/29 00:53:48;;;;;;;36.85;19.65;;;;;;;;;;5027650;28;20369;-77
2022/08/29 00:56:16;;;;;;;32.25;20.30;;;;;;;;;;5011533;28;20120;-76
2022/08/29 00:58:52;;;;;;;40.03;21.17;;;;;;;;;;5027942;28;20490;-79
2022/08/29 01:01:19;;;;;;;34.30;20.30;;;;;;;;;;5027485;28;20390;-78
2022/08/29 01:03:45;;;;;;;36.53;19.95;;;;;;;;;;5012999;28;20026;-78
2022/08/29 01:06:12;;;;;;;29.80;19.52;;;;;;;;;;5027376;28;20049;-79
2022/08/29 01:08:39;;;;;;;40.45;20.58;;;;;;;;;;5012191;28;20349;-79
2022/08/29 01:13:53;;;;;;;36.65;19.42;;;;;;;;;;5012402;28;20557;-78
2022/08/29 01:16:20;;;;;;;28.13;19.25;;;;;;;;;;5027503;28;20127;-78
2022/08/29 01:18:49;;;;;;;44.50;23.05;;;;;;;;;;5027300;28;20036;-78
2022/08/29 01:21:41;;;;;;;29.23;19.20;;;;;;;;;;5027112;28;20022;-78
2022/08/29 01:24:14;;;;;;;41.50;20.55;;;;;;;;;;5004521;28;20508;-78
2022/08/29 01:26:41;;;;;;;27.17;18.42;;;;;;;;;;5009996;28;20026;-78
2022/08/29 01:29:07;;;;;;;32.17;19.83;;;;;;;;;;5012159;28;20045;-79
2022/08/29 01:31:46;;;;;;;30.75;19.00;;;;;;;;;;5012304;28;20076;-78
2022/08/29 01:34:13;;;;;;;32.28;18.42;;;;;;;;;;5027277;28;20041;-79
2022/08/29 01:36:49;;;;;;;31.08;18.40;;;;;;;;;;5012519;28;20061;-78
2022/08/29 01:39:16;;;;;;;34.92;19.60;;;;;;;;;;5027486;28;20430;-78
2022/08/29 01:41:42;;;;;;;31.77;20.55;;;;;;;;;;5026982;28;20026;-78
2022/08/29 01:44:11;;;;;;;33.88;19.63;;;;;;;;;;5027122;28;20029;-77
2022/08/29 01:46:37;;;;;;;34.33;20.42;;;;;;;;;;5027169;28;20041;-77
2022/08/29 01:49:06;;;;;;;36.47;19.92;;;;;;;;;;5011525;28;20053;-78
2022/08/29 01:51:32;;;;;;;36.95;19.13;;;;;;;;;;5012372;28;20097;-79
2022/08/29 01:53:58;;;;;;;32.05;19.67;;;;;;;;;;5011449;28;20037;-78
2022/08/29 01:56:27;;;;;;;36.25;19.90;;;;;;;;;;5012064;28;20018;-77
2022/08/29 01:58:55;;;;;;;34.85;19.38;;;;;;;;;;5011798;28;20129;-78
2022/08/29 02:01:23;;;;;;;35.47;19.70;;;;;;;;;;5012312;28;20127;-78
2022/08/29 02:03:49;;;;;;;35.42;19.33;;;;;;;;;;5026837;28;20060;-78
2022/08/29 02:06:15;;;;;;;32.53;18.83;;;;;;;;;;5010254;28;20057;-78
2022/08/29 02:08:42;;;;;;;32.15;20.23;;;;;;;;;;5011603;28;20485;-79
2022/08/29 02:11:10;;;;;;;31.52;19.17;;;;;;;;;;5026077;28;20026;-77
2022/08/29 02:13:40;;;;;;;32.78;19.60;;;;;;;;;;5027196;28;20152;-78
2022/08/29 02:16:06;;;;;;;35.03;18.17;;;;;;;;;;5011437;28;20048;-78
2022/08/29 02:18:32;;;;;;;31.02;19.77;;;;;;;;;;5011940;28;20033;-78
2022/08/29 02:20:58;;;;;;;33.22;19.05;;;;;;;;;;5011450;28;20026;-78
2022/08/29 02:23:24;;;;;;;34.28;19.73;;;;;;;;;;5011650;28;20482;-78
2022/08/29 02:25:49;;;;;;;29.30;19.10;;;;;;;;;;5011521;28;20037;-79
2022/08/29 02:28:17;;;;;;;36.05;18.88;;;;;;;;;;5026812;28;20045;-78
2022/08/29 02:30:45;;;;;;;32.75;19.48;;;;;;;;;;5026647;28;20076;-78
2022/08/29 02:33:14;;;;;;;35.22;20.50;;;;;;;;;;5011844;28;20060;-78
2022/08/29 02:35:40;;;;;;;35.22;20.73;;;;;;;;;;5027059;28;20022;-78
2022/08/29 02:38:06;;;;;;;31.73;18.90;;;;;;;;;;5010405;28;20117;-78
2022/08/29 02:40:32;;;;;;;31.38;18.35;;;;;;;;;;5026348;28;20529;-78
2022/08/29 02:42:58;;;;;;;34.60;18.70;;;;;;;;;;5011829;28;20477;-79
2022/08/29 02:45:24;;;;;;;33.15;19.45;;;;;;;;;;5027967;28;20049;-78
2022/08/29 02:47:51;;;;;;;34.17;20.52;;;;;;;;;;5013943;28;20026;-79
2022/08/29 02:50:17;;;;;;;34.95;18.90;;;;;;;;;;5015079;28;20041;-78
2022/08/29 02:52:43;;;;;;;32.60;19.38;;;;;;;;;;5013215;28;20030;-79
2022/08/29 02:55:14;;;;;;;33.30;18.00;;;;;;;;;;5030516;28;20079;-77
2022/08/29 02:57:41;;;;;;;30.85;19.67;;;;;;;;;;5014746;28;20037;-78
2022/08/29 03:00:09;;;;;;;35.65;18.85;;;;;;;;;;5014522;28;20033;-78
2022/08/29 03:02:35;;;;;;;32.33;19.67;;;;;;;;;;5013346;28;20041;-78
2022/08/29 03:05:00;;;;;;;39.15;19.10;;;;;;;;;;5029808;28;20038;-78
2022/08/29 03:07:26;;;;;;;36.33;19.02;;;;;;;;;;5014448;28;20124;-79
2022/08/29 03:09:51;;;;;;;32.95;17.95;;;;;;;;;;5012792;28;20032;-77
2022/08/29 03:12:17;;;;;;;31.45;19.17;;;;;;;;;;5029809;28;20515;-76
2022/08/29 03:14:43;;;;;;;32.03;18.70;;;;;;;;;;5014702;28;20390;-78
2022/08/29 03:17:08;;;;;;;35.92;18.98;;;;;;;;;;5015031;28;20049;-79
2022/08/29 03:19:34;;;;;;;36.67;19.02;;;;;;;;;;5014632;28;20105;-78
2022/08/29 03:22:00;;;;;;;26.52;17.33;;;;;;;;;;5013963;28;20033;-79
2022/08/29 03:24:26;;;;;;;32.42;18.98;;;;;;;;;;5029057;28;20089;-78
2022/08/29 03:26:52;;;;;;;32.33;17.92;;;;;;;;;;5014224;28;20076;-78
2022/08/29 03:29:17;;;;;;;29.90;18.15;;;;;;;;;;5014028;28;20433;-77
2022/08/29 03:31:42;;;;;;;30.45;19.17;;;;;;;;;;5014515;28;20030;-78
2022/08/29 03:34:08;;;;;;;28.30;17.30;;;;;;;;;;5014777;28;20468;-78
2022/08/29 03:36:33;;;;;;;32.80;19.20;;;;;;;;;;5014131;28;20034;-78
2022/08/29 03:38:59;;;;;;;29.45;18.85;;;;;;;;;;5014027;28;20033;-76
2022/08/29 03:41:27;;;;;;;34.65;18.75;;;;;;;;;;5029065;28;20406;-79
2022/08/29 03:43:54;;;;;;;29.08;17.70;;;;;;;;;;5029437;28;20034;-78
2022/08/29 03:46:20;;;;;;;29.05;16.88;;;;;;;;;;5014127;28;20049;-78
2022/08/29 03:48:48;;;;;;;30.20;17.05;;;;;;;;;;5011959;28;20052;-77
2022/08/29 03:51:14;;;;;;;29.85;18.13;;;;;;;;;;5029221;28;20022;-79
2022/08/29 03:53:40;;;;;;;29.65;16.88;;;;;;;;;;5013961;28;20482;-77
2022/08/29 03:56:06;;;;;;;30.05;17.88;;;;;;;;;;5028442;28;20024;-76
2022/08/29 03:58:33;;;;;;;33.03;18.38;;;;;;;;;;5013308;28;20033;-78
2022/08/29 04:00:59;;;;;;;28.90;18.70;;;;;;;;;;5014039;28;20054;-78
2022/08/29 04:03:25;;;;;;;29.42;17.30;;;;;;;;;;5028878;28;20091;-78
2022/08/29 04:05:51;;;;;;;35.05;18.38;;;;;;;;;;5013714;28;20030;-78
2022/08/29 04:08:17;;;;;;;35.40;18.58;;;;;;;;;;5012874;28;20456;-77
2022/08/29 04:10:42;;;;;;;33.58;19.23;;;;;;;;;;5028595;28;20025;-77
2022/08/29 04:13:09;;;;;;;37.83;19.92;;;;;;;;;;5013233;28;20084;-78
2022/08/29 04:15:37;;;;;;;34.42;19.40;;;;;;;;;;5029393;28;20030;-78
2022/08/29 04:18:05;;;;;;;30.33;18.25;;;;;;;;;;5012926;28;20026;-78
2022/08/29 04:20:35;;;;;;;31.27;17.52;;;;;;;;;;5028449;28;20034;-78
2022/08/29 04:23:01;;;;;;;29.02;19.08;;;;;;;;;;5012798;28;20533;-77
2022/08/29 04:25:34;;;;;;;34.58;20.60;;;;;;;;;;5028124;28;20097;-78
2022/08/29 04:27:59;;;;;;;33.80;17.77;;;;;;;;;;5027446;28;20053;-78
2022/08/29 04:30:26;;;;;;;28.85;17.38;;;;;;;;;;5027813;28;20377;-77
2022/08/29 04:32:52;;;;;;;33.92;18.13;;;;;;;;;;5012028;28;20064;-78
2022/08/29 04:35:18;;;;;;;27.63;16.85;;;;;;;;;;5027687;28;20030;-78
2022/08/29 04:37:44;;;;;;;28.45;16.42;;;;;;;;;;5012074;28;20076;-79
2022/08/29 04:40:12;;;;;;;30.90;16.33;;;;;;;;;;5027869;28;20512;-78
2022/08/29 04:42:38;;;;;;;31.35;18.23;;;;;;;;;;5012476;28;20157;-79
2022/08/29 04:45:06;;;;;;;30.45;18.20;;;;;;;;;;5012113;28;20103;-78
2022/08/29 04:47:34;;;;;;;38.15;18.77;;;;;;;;;;5012341;28;20358;-77
2022/08/29 04:49:59;;;;;;;30.23;17.25;;;;;;;;;;5028167;28;20022;-78
2022/08/29 04:52:26;;;;;;;31.00;17.38;;;;;;;;;;5012413;28;20026;-79
2022/08/29 04:54:52;;;;;;;25.48;17.02;;;;;;;;;;5011873;28;20445;-78
2022/08/29 04:57:17;;;;;;;28.70;17.02;;;;;;;;;;5012055;28;20133;-79
2022/08/29 04:59:43;;;;;;;31.73;18.00;;;;;;;;;;5027425;28;20468;-79
2022/08/29 05:02:08;;;;;;;29.52;18.17;;;;;;;;;;5012177;28;20057;-78
2022/08/29 05:04:34;;;;;;;30.30;17.17;;;;;;;;;;5012155;28;20481;-78
2022/08/29 05:06:59;;;;;;;27.60;17.67;;;;;;;;;;5012345;28;20548;-78
2022/08/29 05:09:24;;;;;;;27.38;16.95;;;;;;;;;;5012193;28;20022;-78
2022/08/29 05:11:50;;;;;;;30.17;17.52;;;;;;;;;;5012333;28;20160;-78
2022/08/29 05:14:16;;;;;;;28.08;15.43;;;;;;;;;;5011182;28;20064;-79
2022/08/29 05:16:41;;;;;;;27.52;17.13;;;;;;;;;;5030941;28;20362;-77
2022/08/29 05:19:07;;;;;;;27.30;17.00;;;;;;;;;;5045461;28;20056;-79
2022/08/29 05:21:35;;;;;;;30.38;18.13;;;;;;;;;;5031459;28;20486;-79
2022/08/29 05:24:09;;;;;;;31.77;16.58;;;;;;;;;;5032200;28;20084;-77
2022/08/29 05:26:41;;;;;;;26.90;15.75;;;;;;;;;;5046772;28;20060;-78
2022/08/29 05:29:08;;;;;;;25.02;15.50;;;;;;;;;;5047641;28;20517;-78
2022/08/29 05:31:35;;;;;;;24.65;14.95;;;;;;;;;;5046819;28;20330;-78
2022/08/29 05:34:01;;;;;;;27.00;16.30;;;;;;;;;;5038919;28;20029;-77
2022/08/29 05:36:27;;;;;;;29.83;15.98;;;;;;;;;;5021550;28;20032;-79
2022/08/29 05:38:52;;;;;;;27.85;16.35;;;;;;;;;;5026688;28;20040;-77
2022/08/29 05:41:18;;;;;;;27.40;14.70;;;;;;;;;;5030986;28;20119;-79
2022/08/29 05:43:43;;;;;;;24.08;14.88;;;;;;;;;;5024600;28;20029;-77
2022/08/29 05:46:10;;;;;;;26.13;15.70;;;;;;;;;;5023240;28;20029;-78
2022/08/29 05:48:40;;;;;;;31.00;15.52;;;;;;;;;;5030840;28;20086;-77
2022/08/29 05:51:05;;;;;;;29.25;15.88;;;;;;;;;;5017407;28;20036;-78
2022/08/29 05:53:33;;;;;;;34.60;18.50;;;;;;;;;;5029656;28;20022;-78
2022/08/29 05:55:58;;;;;;;31.90;15.95;;;;;;;;;;5033313;28;20076;-77
2022/08/29 05:58:25;;;;;;;24.48;14.93;;;;;;;;;;5014879;28;20478;-79
2022/08/29 06:00:50;;;;;;;25.90;14.48;;;;;;;;;;5042374;28;20037;-78
2022/08/29 06:03:17;;;;;;;31.00;15.73;;;;;;;;;;5045591;28;20102;-79
2022/08/29 06:05:49;;;;;;;23.77;14.85;;;;;;;;;;5023880;28;20033;-78
2022/08/29 06:08:14;;;;;;;24.90;15.68;;;;;;;;;;5025424;28;20033;-78
2022/08/29 06:10:42;;;;;;;25.55;15.25;;;;;;;;;;5023624;28;20030;-78
2022/08/29 06:13:08;;;;;;;28.20;15.88;;;;;;;;;;5051221;28;20029;-79
2022/08/29 06:15:33;;;;;;;30.60;16.70;;;;;;;;;;5029636;28;20025;-79
2022/08/29 06:17:59;;;;;;;31.35;15.93;;;;;;;;;;5029378;28;20108;-78
2022/08/29 06:20:24;;;;;;;28.08;15.68;;;;;;;;;;5045862;28;20079;-78
2022/08/29 06:22:50;;;;;;;29.70;15.52;;;;;;;;;;5038195;28;20560;-77
2022/08/29 06:25:15;;;;;;;31.35;15.85;;;;;;;;;;5042806;28;20037;-78
2022/08/29 06:27:41;;;;;;;28.95;16.10;;;;;;;;;;5029788;28;20052;-80
2022/08/29 06:30:07;;;;;;;23.60;14.30;;;;;;;;;;5030073;28;20041;-77
2022/08/29 06:32:32;;;;;;;21.40;12.13;;;;;;;;;;5043745;28;20021;-77
2022/08/29 06:34:58;;;;;;;28.50;14.27;;;;;;;;;;5035076;28;20025;-77
2022/08/29 06:37:23;;;;;;;18.00;9.45;;;;;;;;;;5053289;28;20041;-78
2022/08/29 06:39:49;;;;;;;24.73;10.00;;;;;;;;;;5051236;28;20115;-78
2022/08/29 06:42:21;;;;;;;16.20;7.35;;;;;;;;;;5032728;28;20048;-78
2022/08/29 06:44:48;;;;;;;21.83;7.78;;;;;;;;;;5029375;28;20041;-80
2022/08/29 06:47:13;;;;;;;16.40;7.05;;;;;;;;;;5037806;28;20029;-79
2022/08/29 06:49:39;;;;;;;17.60;7.22;;;;;;;;;;5027172;28;20032;-78
2022/08/29 06:52:05;;;;;;;14.93;5.72;;;;;;;;;;5030629;28;20424;-79
2022/08/29 06:54:31;;;;;;;12.80;4.65;;;;;;;;;;5028081;28;20025;-78
2022/08/29 06:56:58;;;;;;;14.95;6.85;;;;;;;;;;5039715;28;20029;-79
2022/08/29 06:59:24;;;;;;;15.30;5.20;;;;;;;;;;4998726;28;20038;-79
2022/08/29 07:01:50;;;;;;;16.10;5.47;;;;;;;;;;5022376;28;20144;-78
2022/08/29 07:04:17;;;;;;;14.23;5.57;;;;;;;;;;5028306;28;20033;-78
2022/08/29 07:06:43;;;;;;;14.35;4.95;;;;;;;;;;5033132;28;20124;-78
2022/08/29 07:09:12;;;;;;;9.63;5.03;;;;;;;;;;5026868;28;20426;-78
2022/08/29 07:11:41;;;;;;;13.80;5.07;;;;;;;;;;5018513;28;20453;-79
2022/08/29 07:14:13;;;;;;;11.55;5.28;;;;;;;;;;5035251;28;20087;-77
2022/08/29 07:16:44;;;;;;;10.20;4.95;;;;;;;;;;5018204;28;20025;-80
2022/08/29 07:19:13;;;;;;;14.82;6.75;;;;;;;;;;5039119;28;20078;-81
2022/08/29 07:21:39;;;;;;;10.85;4.70;;;;;;;;;;5030691;28;20061;-80
2022/08/29 07:24:07;;;;;;;13.15;4.80;;;;;;;;;;5030813;28;20025;-78
2022/08/29 07:26:42;;;;;;;9.95;5.72;;;;;;;;;;5013327;28;20040;-78
2022/08/29 07:29:16;;;;;;;9.38;4.22;;;;;;;;;;5024953;28;20049;-76
2022/08/29 07:31:46;;;;;;;12.63;4.78;;;;;;;;;;5022710;28;20386;-77
2022/08/29 07:34:27;;;;;;;8.88;4.00;;;;;;;;;;5024969;28;20071;-78
2022/08/29 07:36:53;;;;;;;18.38;5.32;;;;;;;;;;5029311;28;20034;-78
2022/08/29 07:39:22;;;;;;;12.88;4.57;;;;;;;;;;5021996;28;20327;-78
2022/08/29 07:41:52;;;;;;;12.07;4.63;;;;;;;;;;5012428;28;20044;-79
2022/08/29 07:44:18;;;;;;;11.13;3.83;;;;;;;;;;5041274;28;20492;-77
2022/08/29 07:46:44;;;;;;;7.20;4.00;;;;;;;;;;5034467;28;20022;-78
2022/08/29 07:49:11;;;;;;;11.18;4.00;;;;;;;;;;5044641;28;20139;-78
2022/08/29 07:51:40;;;;;;;9.27;3.17;;;;;;;;;;5058569;28;20056;-77
2022/08/29 07:54:06;;;;;;;9.77;3.40;;;;;;;;;;5026341;28;20044;-78
2022/08/29 07:56:39;;;;;;;9.95;4.45;;;;;;;;;;5026931;28;20028;-79
2022/08/29 07:59:06;;;;;;;13.35;3.65;;;;;;;;;;5033929;28;20064;-79
2022/08/29 08:01:35;;;;;;;8.30;3.22;;;;;;;;;;5048931;28;20086;-79
2022/08/29 08:04:05;;;;;;;8.02;3.10;;;;;;;;;;5040981;28;20026;-82
2022/08/29 08:06:35;;;;;;;12.02;3.78;;;;;;;;;;5061401;28;20041;-81
2022/08/29 08:09:06;;;;;;;8.65;3.50;;;;;;;;;;5023348;28;20159;-79
2022/08/29 08:11:35;;;;;;;9.57;3.37;;;;;;;;;;5023452;28;20544;-79
2022/08/29 08:14:02;;;;;;;8.65;3.38;;;;;;;;;;5041696;28;20037;-78
2022/08/29 08:16:29;;;;;;;12.90;4.45;;;;;;;;;;5046163;28;20064;-78
2022/08/29 08:18:56;;;;;;;14.73;3.65;;;;;;;;;;5020599;28;20044;-78
2022/08/29 08:21:24;;;;;;;12.32;3.42;;;;;;;;;;5044532;28;20029;-76
2022/08/29 08:23:51;;;;;;;11.98;3.92;;;;;;;;;;5016097;28;20033;-74
2022/08/29 08:26:21;;;;;;;13.07;4.57;;;;;;;;;;5035213;28;20378;-75
2022/08/29 08:28:48;;;;;;;5.43;3.30;;;;;;;;;;5023588;28;20057;-76
2022/08/29 08:31:15;;;;;;;10.00;4.10;;;;;;;;;;5036817;28;20402;-75
2022/08/29 08:33:43;;;;;;;8.00;3.60;;;;;;;;;;5026986;28;20541;-75
2022/08/29 08:36:22;;;;;;;8.85;3.30;;;;;;;;;;5011478;28;20047;-77
2022/08/29 08:38:52;;;;;;;9.43;4.15;;;;;;;;;;5028274;28;20041;-76
2022/08/29 08:41:40;;;;;;;16.02;3.80;;;;;;;;;;5046226;28;20025;-77
2022/08/29 08:44:29;;;;;;;11.10;3.35;;;;;;;;;;5028981;28;20361;-76
2022/08/29 08:47:01;;;;;;;10.88;4.13;;;;;;;;;;5026583;28;20025;-76
2022/08/29 08:49:49;;;;;;;13.48;4.18;;;;;;;;;;5026587;28;20482;-76
2022/08/29 08:52:44;;;;;;;13.60;3.65;;;;;;;;;;5023372;28;20025;-76
2022/08/29 08:55:23;;;;;;;15.63;4.70;;;;;;;;;;5026923;28;20393;-77
2022/08/29 08:58:16;;;;;;;9.40;3.92;;;;;;;;;;5025469;28;20111;-79
2022/08/29 09:00:51;;;;;;;13.98;4.30;;;;;;;;;;5018433;28;20180;-78
2022/08/29 09:03:55;;;;;;;14.68;4.40;;;;;;;;;;5024068;28;20043;-74
2022/08/29 09:06:58;;;;;;;16.88;4.30;;;;;;;;;;5019821;28;20022;-74
2022/08/29 09:10:01;;;;;;;16.20;4.22;;;;;;;;;;5019710;28;20021;-74
2022/08/29 09:12:28;;;;;;;14.77;3.95;;;;;;;;;;5025401;28;20555;-76
2022/08/29 09:15:16;;;;;;;14.27;4.03;;;;;;;;;;5016497;28;20469;-76
2022/08/29 09:17:57;;;;;;;25.80;6.00;;;;;;;;;;5027787;28;20037;-78
2022/08/29 09:20:24;;;;;;;;;;;;;;;;;;5041024;28;20169;-75
2022/08/29 09:23:02;;;;;;;10.45;3.78;;;;;;;;;;5034735;28;19925;-76
2022/08/29 09:25:29;;;;;;;12.73;3.47;;;;;;;;;;5021898;28;20485;-75
2022/08/29 09:28:07;;;;;;;30.45;15.55;;;;;;;;;;5018427;28;20072;-75
2022/08/29 09:30:35;;;;;;;11.25;4.30;;;;;;;;;;5023007;28;20488;-76
2022/08/29 09:33:19;;;;;;;13.07;3.95;;;;;;;;;;5025096;28;20063;-78
2022/08/29 09:35:52;;;;;;;14.90;4.20;;;;;;;;;;5029154;28;20030;-78
2022/08/29 09:38:32;;;;;;;9.68;4.00;;;;;;;;;;5020906;28;20432;-76
2022/08/29 09:41:02;;;;;;;10.32;3.80;;;;;;;;;;5012044;28;20060;-75
2022/08/29 09:43:30;;;;;;;14.60;4.63;;;;;;;;;;5011375;28;20465;-76
2022/08/29 09:46:16;;;;;;;9.48;4.18;;;;;;;;;;5015370;28;20537;-76
2022/08/29 09:48:57;;;;;;;19.08;8.68;;;;;;;;;;5025330;28;20514;-78
2022/08/29 09:51:27;;;;;;;;;;;;;;;;;;5029091;28;20037;-74
2022/08/29 09:54:10;;;;;;;11.85;4.45;;;;;;;;;;5035057;28;19921;-77
2022/08/29 09:56:49;;;;;;;9.43;3.83;;;;;;;;;;5031094;28;20032;-75
2022/08/29 09:59:26;;;;;;;11.00;3.50;;;;;;;;;;5019288;28;20487;-76
2022/08/29 10:02:15;;;;;;;17.27;4.30;;;;;;;;;;5033176;28;20392;-76
2022/08/29 10:04:44;;;;;;;9.45;3.35;;;;;;;;;;5037603;28;20136;-78
2022/08/29 10:07:23;;;;;;;14.27;4.05;;;;;;;;;;5025232;28;20087;-76
2022/08/29 10:10:24;;;;;;;8.57;3.35;;;;;;;;;;5040893;28;20411;-76
2022/08/29 10:13:02;;;;;;;14.02;3.70;;;;;;;;;;5026057;28;20413;-74
2022/08/29 10:15:52;;;;;;;25.63;4.50;;;;;;;;;;5036131;28;20085;-76
2022/08/29 10:18:39;;;;;;;15.77;4.22;;;;;;;;;;5036363;28;20056;-77
2022/08/29 10:21:13;;;;;;;12.40;4.07;;;;;;;;;;5031119;28;20305;-75
2022/08/29 10:23:58;;;;;;;11.90;4.25;;;;;;;;;;5014936;28;20030;-76
2022/08/29 10:26:39;;;;;;;8.55;3.97;;;;;;;;;;5027335;28;20033;-75
2022/08/29 10:29:25;;;;;;;10.45;4.20;;;;;;;;;;5024070;28;20049;-76
2022/08/29 10:32:20;;;;;;;11.68;4.00;;;;;;;;;;5033607;28;20490;-78
2022/08/29 10:35:15;;;;;;;12.20;3.65;;;;;;;;;;5012689;28;20041;-78
2022/08/29 10:37:58;;;;;;;13.65;3.83;;;;;;;;;;5008883;28;20234;-79
2022/08/29 10:40:54;;;;;;;10.40;3.83;;;;;;;;;;5009115;28;20029;-76
2022/08/29 10:43:42;;;;;;;13.10;4.45;;;;;;;;;;5010675;28;20446;-77
2022/08/29 10:46:52;;;;;;;14.43;5.53;;;;;;;;;;5021501;28;20214;-75
2022/08/29 10:49:57;;;;;;;14.38;4.50;;;;;;;;;;5023617;28;20644;-74
2022/08/29 10:52:26;;;;;;;11.80;3.65;;;;;;;;;;5007487;28;20029;-78
2022/08/29 10:55:24;;;;;;;16.45;6.13;;;;;;;;;;5008736;28;20044;-77
2022/08/29 10:58:16;;;;;;;10.55;4.28;;;;;;;;;;4995378;28;20155;-75
2022/08/29 11:00:51;;;;;;;12.10;4.15;;;;;;;;;;5009529;28;20033;-76
2022/08/29 11:03:26;;;;;;;12.50;4.47;;;;;;;;;;5013439;28;20331;-76
2022/08/29 11:06:04;;;;;;;11.60;4.20;;;;;;;;;;5010062;28;20036;-76
2022/08/29 11:08:39;;;;;;;9.63;4.22;;;;;;;;;;5019548;28;20056;-76
2022/08/29 11:11:04;;;;;;;11.15;4.03;;;;;;;;;;5019039;28;20076;-78
2022/08/29 11:13:38;;;;;;;9.63;4.40;;;;;;;;;;5009317;28;20054;-78
2022/08/29 11:16:26;;;;;;;11.32;4.07;;;;;;;;;;4999686;28;20029;-77
2022/08/29 11:19:17;;;;;;;14.65;4.63;;;;;;;;;;5007488;28;20034;-75
2022/08/29 11:21:59;;;;;;;10.90;4.10;;;;;;;;;;5024730;28;20065;-77
2022/08/29 11:24:29;;;;;;;12.45;5.22;;;;;;;;;;5000581;28;20481;-76
2022/08/29 11:27:04;;;;;;;15.55;4.65;;;;;;;;;;5022831;28;20029;-76
2022/08/29 11:29:51;;;;;;;14.73;4.03;;;;;;;;;;5002090;28;20064;-75
2022/08/29 11:32:32;;;;;;;15.77;5.10;;;;;;;;;;5026767;28;20026;-76
2022/08/29 11:35:23;;;;;;;16.60;4.43;;;;;;;;;;5021998;28;20136;-77
2022/08/29 11:38:16;;;;;;;10.48;3.70;;;;;;;;;;5007370;28;20021;-79
2022/08/29 11:41:25;;;;;;;13.25;4.18;;;;;;;;;;5011955;28;20025;-78
2022/08/29 11:43:55;;;;;;;11.15;3.90;;;;;;;;;;5032157;28;20504;-79
2022/08/29 11:46:50;;;;;;;10.23;4.07;;;;;;;;;;5009307;28;20493;-76
2022/08/29 11:49:37;;;;;;;16.95;4.85;;;;;;;;;;4998853;28;20041;-76
2022/08/29 11:52:09;;;;;;;13.50;4.20;;;;;;;;;;5004443;28;20076;-75
2022/08/29 11:54:38;;;;;;;13.80;4.40;;;;;;;;;;5018876;28;20041;-75
2022/08/29 11:57:04;;;;;;;12.50;3.85;;;;;;;;;;5006050;28;20020;-77
2022/08/29 11:59:54;;;;;;;11.93;3.97;;;;;;;;;;5006266;28;20033;-75
2022/08/29 12:02:29;;;;;;;12.95;4.25;;;;;;;;;;5004714;28;20316;-76
2022/08/29 12:04:59;;;;;;;16.38;3.88;;;;;;;;;;5011670;28;20100;-78
2022/08/29 12:07:48;;;;;;;8.88;4.40;;;;;;;;;;5018998;28;20026;-77
2022/08/29 12:10:22;;;;;;;11.38;4.07;;;;;;;;;;5007201;28;20045;-79
2022/08/29 12:12:55;;;;;;;10.80;3.47;;;;;;;;;;5007404;28;20029;-73
2022/08/29 12:15:30;;;;;;;12.27;4.07;;;;;;;;;;5033697;28;20120;-76
2022/08/29 12:18:16;;;;;;;12.55;3.70;;;;;;;;;;5011817;28;20057;-77
2022/08/29 12:20:46;;;;;;;10.90;4.03;;;;;;;;;;5010734;28;20121;-75
2022/08/29 12:23:21;;;;;;;10.88;3.60;;;;;;;;;;5018061;28;20034;-78
2022/08/29 12:25:55;;;;;;;10.18;3.85;;;;;;;;;;5020102;28;20034;-74
2022/08/29 12:28:20;;;;;;;9.05;3.30;;;;;;;;;;5004488;28;20435;-78
2022/08/29 12:31:03;;;;;;;9.23;3.55;;;;;;;;;;5001902;28;20507;-77
2022/08/29 12:33:35;;;;;;;8.95;3.90;;;;;;;;;;5010204;28;20088;-77
2022/08/29 12:36:28;;;;;;;7.07;3.55;;;;;;;;;;5001887;28;20022;-75
2022/08/29 12:39:28;;;;;;;10.10;3.53;;;;;;;;;;5006155;28;20041;-77
2022/08/29 12:42:27;;;;;;;7.47;3.15;;;;;;;;;;5007314;28;20407;-77
2022/08/29 12:45:26;;;;;;;8.20;3.03;;;;;;;;;;5007241;28;20026;-75
2022/08/29 12:47:55;;;;;;;9.88;2.83;;;;;;;;;;5028559;28;20890;-77
2022/08/29 12:50:30;;;;;;;15.32;4.82;;;;;;;;;;5001824;28;20445;-75
2022/08/29 12:53:01;;;;;;;7.15;3.35;;;;;;;;;;5024645;28;20064;-77
2022/08/29 12:55:44;;;;;;;8.17;3.40;;;;;;;;;;5016318;28;20097;-75
2022/08/29 12:58:12;;;;;;;9.48;3.35;;;;;;;;;;5002613;28;20357;-78
2022/08/29 13:00:38;;;;;;;12.57;4.10;;;;;;;;;;5021187;28;20490;-75
2022/08/29 13:03:06;;;;;;;10.55;4.43;;;;;;;;;;5014265;28;20053;-75
2022/08/29 13:05:35;;;;;;;10.38;4.15;;;;;;;;;;5010904;28;20034;-77
2022/08/29 13:08:14;;;;;;;7.78;3.28;;;;;;;;;;5011357;28;20034;-76
2022/08/29 13:10:56;;;;;;;6.07;2.97;;;;;;;;;;5006396;28;20040;-76
2022/08/29 13:13:23;;;;;;;12.65;3.72;;;;;;;;;;4999008;28;20038;-82
2022/08/29 13:15:51;;;;;;;6.82;3.45;;;;;;;;;;5001863;28;20032;-77
2022/08/29 13:18:21;;;;;;;9.10;3.92;;;;;;;;;;5003171;28;20073;-75
2022/08/29 13:21:03;;;;;;;9.30;3.42;;;;;;;;;;5006733;28;20026;-77
2022/08/29 13:23:32;;;;;;;9.50;3.20;;;;;;;;;;4999278;28;20493;-79
2022/08/29 13:26:20;;;;;;;11.18;4.25;;;;;;;;;;5005671;28;20036;-77
2022/08/29 13:28:49;;;;;;;7.60;3.38;;;;;;;;;;5004031;28;20137;-77
2022/08/29 13:31:15;;;;;;;13.23;3.78;;;;;;;;;;4997905;28;20064;-76
2022/08/29 13:33:50;;;;;;;10.50;4.00;;;;;;;;;;5018673;28;20057;-77
2022/08/29 13:36:45;;;;;;;11.52;4.45;;;;;;;;;;5001963;28;20082;-78
2022/08/29 13:39:25;;;;;;;10.15;3.47;;;;;;;;;;5015078;28;20033;-78
2022/08/29 13:42:03;;;;;;;10.02;3.97;;;;;;;;;;5007638;28;20414;-79
2022/08/29 13:44:53;;;;;;;10.88;3.67;;;;;;;;;;5025810;28;20091;-76
2022/08/29 13:47:22;;;;;;;12.50;4.05;;;;;;;;;;4994378;28;20018;-75
2022/08/29 13:49:49;;;;;;;13.95;4.20;;;;;;;;;;5007949;28;20048;-76
2022/08/29 13:52:16;;;;;;;11.23;4.40;;;;;;;;;;5005091;28;20054;-77
2022/08/29 13:54:42;;;;;;;11.90;3.85;;;;;;;;;;5030936;28;20025;-75
2022/08/29 13:57:17;;;;;;;11.02;4.18;;;;;;;;;;5002593;28;20156;-75
2022/08/29 13:59:44;;;;;;;9.63;3.95;;;;;;;;;;5001918;28;20116;-76
2022/08/29 14:02:11;;;;;;;12.73;4.38;;;;;;;;;;5000024;28;20033;-75
2022/08/29 14:04:37;;;;;;;11.82;4.50;;;;;;;;;;5014205;28;20120;-76
2022/08/29 14:07:04;;;;;;;10.57;4.13;;;;;;;;;;5012507;28;20030;-77
2022/08/29 14:09:41;;;;;;;7.30;3.72;;;;;;;;;;5009098;28;20061;-75
2022/08/29 14:12:08;;;;;;;13.65;4.25;;;;;;;;;;5002785;28;20055;-75
2022/08/29 14:14:34;;;;;;;10.63;4.15;;;;;;;;;;5003948;28;20033;-75
2022/08/29 14:16:59;;;;;;;10.70;4.25;;;;;;;;;;5009308;28;20088;-76
2022/08/29 14:19:27;;;;;;;13.00;4.22;;;;;;;;;;5000589;28;20026;-75
2022/08/29 14:21:54;;;;;;;14.40;4.25;;;;;;;;;;5006548;28;20069;-76
2022/08/29 14:24:21;;;;;;;9.30;3.55;;;;;;;;;;5005680;28;20074;-76
2022/08/29 14:26:47;;;;;;;8.45;3.90;;;;;;;;;;4996109;28;20130;-75
2022/08/29 14:29:13;;;;;;;10.63;3.67;;;;;;;;;;5000695;28;20121;-76
2022/08/29 14:31:38;;;;;;;11.18;4.18;;;;;;;;;;5005134;28;20034;-76
2022/08/29 14:34:04;;;;;;;11.30;3.55;;;;;;;;;;5005857;28;20040;-79
2022/08/29 14:36:30;;;;;;;8.45;3.38;;;;;;;;;;5017910;28;20037;-79
2022/08/29 14:38:56;;;;;;;8.93;3.58;;;;;;;;;;5003246;28;20528;-79
2022/08/29 14:41:21;;;;;;;7.95;3.45;;;;;;;;;;5007556;28;20334;-77
2022/08/29 14:43:47;;;;;;;8.90;4.00;;;;;;;;;;5000122;28;20473;-77
2022/08/29 14:46:12;;;;;;;8.38;3.80;;;;;;;;;;5009997;28;20045;-76
2022/08/29 14:48:39;;;;;;;9.30;3.60;;;;;;;;;;5008500;28;20458;-78
2022/08/29 14:51:05;;;;;;;9.07;4.32;;;;;;;;;;5012207;28;20474;-75
2022/08/29 14:53:30;;;;;;;4.93;3.20;;;;;;;;;;5021104;28;20030;-76
2022/08/29 14:55:57;;;;;;;9.52;4.13;;;;;;;;;;5008799;28;20446;-77